createdAt,value
2019-05-19T00:02:06.309Z,60.00
2019-05-19T00:04:37.891Z,59.54
2019-05-19T00:07:09.199Z,59.35
2019-05-19T00:09:40.711Z,59.17
2019-05-19T00:12:12.236Z,58.92
2019-05-19T00:14:43.514Z,58.76
2019-05-19T00:17:14.893Z,58.65
2019-05-19T00:19:46.108Z,58.64
2019-05-19T00:22:17.599Z,58.81
2019-05-19T00:24:49.016Z,58.63
2019-05-19T00:27:20.262Z,58.46
2019-05-19T00:29:51.536Z,58.61
2019-05-19T00:32:23.187Z,58.98
2019-05-19T00:34:54.875Z,58.75
2019-05-19T00:37:26.457Z,58.68
2019-05-19T00:39:58.001Z,58.81
2019-05-19T00:42:29.432Z,58.33
2019-05-19T00:45:00.801Z,58.68
2019-05-19T00:47:32.049Z,58.30
2019-05-19T00:50:04.371Z,58.33
2019-05-19T00:52:35.788Z,58.05
2019-05-19T00:55:07.310Z,58.09
2019-05-19T00:57:39.676Z,58.13
2019-05-19T01:00:12.236Z,57.96
2019-05-19T01:02:43.594Z,57.70
2019-05-19T01:05:14.790Z,58.11
2019-05-19T01:07:46.223Z,58.17
2019-05-19T01:10:17.678Z,57.86
2019-05-19T01:12:49.039Z,58.05
2019-05-19T01:15:21.178Z,58.41
2019-05-19T01:17:52.490Z,58.49
2019-05-19T01:20:24.394Z,58.13
2019-05-19T01:22:55.716Z,58.41
2019-05-19T01:25:27.215Z,58.22
2019-05-19T01:27:58.955Z,58.34
2019-05-19T01:30:30.414Z,57.96
2019-05-19T01:33:01.916Z,57.81
2019-05-19T01:35:33.251Z,57.70
2019-05-19T01:38:04.674Z,58.32
2019-05-19T01:40:36.070Z,58.48
2019-05-19T01:43:07.608Z,58.70
2019-05-19T01:45:39.026Z,58.93
2019-05-19T01:48:10.464Z,59.01
2019-05-19T01:50:42.147Z,59.27
2019-05-19T01:53:13.701Z,58.74
2019-05-19T01:55:45.143Z,59.21
2019-05-19T01:58:16.575Z,58.26
2019-05-19T02:00:47.839Z,58.79
2019-05-19T02:03:19.267Z,57.96
2019-05-19T02:05:50.742Z,57.94
2019-05-19T02:08:22.217Z,58.06
2019-05-19T02:10:53.566Z,57.48
2019-05-19T02:13:24.952Z,56.49
2019-05-19T02:15:57.470Z,56.22
2019-05-19T02:18:28.817Z,54.95
2019-05-19T02:21:00.064Z,54.21
2019-05-19T02:23:31.566Z,53.70
2019-05-19T02:26:02.978Z,53.07
2019-05-19T02:28:34.359Z,52.90
2019-05-19T02:31:05.752Z,52.85
2019-05-19T02:33:37.241Z,51.14
2019-05-19T02:36:08.563Z,50.29
2019-05-19T02:38:40.020Z,49.73
2019-05-19T02:41:12.762Z,48.80
2019-05-19T02:43:44.831Z,48.53
2019-05-19T02:46:16.155Z,48.73
2019-05-19T02:48:49.520Z,47.61
2019-05-19T02:51:22.650Z,47.42
2019-05-19T02:53:55.233Z,47.03
2019-05-19T02:56:28.473Z,48.05
2019-05-19T02:59:00.944Z,47.72
2019-05-19T03:01:34.035Z,47.19
2019-05-19T03:04:04.800Z,44.29
2019-05-19T03:06:35.850Z,45.51
2019-05-19T03:09:07.157Z,45.52
2019-05-19T03:11:38.462Z,44.76
2019-05-19T03:14:10.348Z,45.54
2019-05-19T03:16:41.847Z,44.88
2019-05-19T03:19:13.362Z,44.67
2019-05-19T03:21:44.749Z,44.41
2019-05-19T03:24:16.243Z,43.36
2019-05-19T03:26:48.115Z,43.54
2019-05-19T03:29:21.105Z,43.30
2019-05-19T03:31:54.131Z,43.18
2019-05-19T03:34:27.090Z,43.31
2019-05-19T03:36:58.209Z,40.87
2019-05-19T03:39:29.410Z,41.18
2019-05-19T03:42:00.752Z,42.32
2019-05-19T03:44:32.005Z,42.41
2019-05-19T03:47:03.167Z,46.08
2019-05-19T03:49:34.255Z,43.30
2019-05-19T03:52:05.938Z,43.42
2019-05-19T03:54:37.265Z,44.46
2019-05-19T03:57:08.657Z,44.15
2019-05-19T03:59:40.169Z,45.67
2019-05-19T04:02:11.336Z,44.07
2019-05-19T04:04:42.599Z,44.18
2019-05-19T04:07:13.736Z,43.12
2019-05-19T04:09:44.992Z,42.42
2019-05-19T04:12:17.394Z,43.04
2019-05-19T04:14:48.958Z,41.86
2019-05-19T04:17:20.165Z,42.78
2019-05-19T04:19:51.645Z,45.16
2019-05-19T04:22:22.807Z,45.63
2019-05-19T04:24:54.169Z,48.62
2019-05-19T04:27:25.339Z,48.03
2019-05-19T04:29:56.666Z,49.34
2019-05-19T04:32:27.961Z,48.64
2019-05-19T04:34:59.333Z,47.93
2019-05-19T04:37:30.650Z,48.74
2019-05-19T04:40:01.979Z,48.71
2019-05-19T04:42:34.541Z,48.55
2019-05-19T04:45:06.879Z,48.97
2019-05-19T04:47:38.208Z,49.31
2019-05-19T04:50:09.593Z,49.25
2019-05-19T04:52:40.954Z,49.41
2019-05-19T04:55:12.172Z,49.75
2019-05-19T04:57:43.438Z,48.67
2019-05-19T05:00:14.883Z,48.25
2019-05-19T05:02:46.145Z,48.58
2019-05-19T05:05:17.387Z,48.88
2019-05-19T05:07:48.830Z,48.20
2019-05-19T05:10:20.543Z,48.80
2019-05-19T05:12:52.820Z,47.85
2019-05-19T05:15:24.112Z,47.64
2019-05-19T05:17:55.292Z,48.10
2019-05-19T05:20:26.521Z,47.00
2019-05-19T05:22:57.736Z,46.48
2019-05-19T05:25:29.132Z,46.63
2019-05-19T05:28:00.570Z,46.96
2019-05-19T05:30:32.153Z,46.14
2019-05-19T05:33:03.701Z,45.31
2019-05-19T05:35:35.299Z,45.48
2019-05-19T05:38:06.911Z,45.94
2019-05-19T05:40:38.232Z,45.51
2019-05-19T05:43:09.821Z,45.85
2019-05-19T05:45:40.878Z,45.35
2019-05-19T05:48:13.261Z,45.53
2019-05-19T05:50:44.647Z,44.92
2019-05-19T05:53:16.209Z,44.87
2019-05-19T05:55:47.848Z,45.37
2019-05-19T05:58:19.495Z,45.31
2019-05-19T06:00:50.947Z,44.45
2019-05-19T06:03:22.416Z,44.78
2019-05-19T06:05:53.665Z,44.11
2019-05-19T06:08:25.166Z,44.86
2019-05-19T06:10:56.733Z,44.59
2019-05-19T06:13:28.194Z,44.05
2019-05-19T06:15:59.426Z,43.68
2019-05-19T06:18:30.888Z,44.01
2019-05-19T06:21:02.187Z,44.74
2019-05-19T06:23:33.556Z,44.40
2019-05-19T06:26:05.074Z,44.30
2019-05-19T06:28:36.443Z,44.00
2019-05-19T06:31:08.034Z,43.55
2019-05-19T06:33:39.531Z,43.30
2019-05-19T06:36:10.915Z,39.97
2019-05-19T06:38:42.243Z,42.15
2019-05-19T06:41:13.596Z,41.40
2019-05-19T06:43:45.123Z,40.05
2019-05-19T06:46:16.460Z,39.12
2019-05-19T06:48:47.824Z,39.89
2019-05-19T06:51:19.192Z,39.85
2019-05-19T06:53:50.741Z,39.30
2019-05-19T06:56:22.054Z,37.24
2019-05-19T06:58:53.318Z,37.57
2019-05-19T07:01:24.589Z,36.61
2019-05-19T07:03:56.040Z,37.05
2019-05-19T07:06:27.376Z,37.13
2019-05-19T07:08:58.777Z,37.27
2019-05-19T07:11:30.319Z,36.25
2019-05-19T07:14:03.039Z,36.02
2019-05-19T07:16:34.586Z,36.42
2019-05-19T07:19:06.089Z,36.62
2019-05-19T07:21:37.620Z,36.93
2019-05-19T07:24:08.756Z,38.18
2019-05-19T07:26:40.133Z,38.32
2019-05-19T07:29:11.475Z,35.75
2019-05-19T07:31:43.186Z,35.80
2019-05-19T07:34:15.514Z,35.88
2019-05-19T07:36:47.129Z,35.64
2019-05-19T07:39:18.679Z,35.33
2019-05-19T07:41:50.473Z,35.56
2019-05-19T07:44:24.899Z,35.08
2019-05-19T07:46:56.328Z,35.69
2019-05-19T07:49:27.622Z,36.13
2019-05-19T07:51:58.939Z,36.21
2019-05-19T07:54:30.404Z,36.16
2019-05-19T07:57:01.713Z,36.32
2019-05-19T07:59:32.989Z,36.41
2019-05-19T08:02:04.779Z,36.50
2019-05-19T08:04:36.299Z,36.57
2019-05-19T08:07:07.839Z,36.29
2019-05-19T08:09:39.130Z,36.67
2019-05-19T08:12:10.474Z,36.07
2019-05-19T08:14:41.976Z,36.13
2019-05-19T08:17:13.414Z,35.69
2019-05-19T08:19:44.601Z,35.91
2019-05-19T08:22:15.957Z,36.53
2019-05-19T08:24:47.372Z,35.68
2019-05-19T08:27:18.736Z,35.81
2019-05-19T08:29:50.108Z,35.63
2019-05-19T08:32:21.420Z,36.10
2019-05-19T08:34:52.752Z,35.79
2019-05-19T08:37:24.025Z,35.97
2019-05-19T08:39:55.183Z,36.17
2019-05-19T08:42:26.346Z,36.13
2019-05-19T08:44:57.502Z,36.19
2019-05-19T08:47:28.731Z,36.04
2019-05-19T08:49:59.844Z,35.81
2019-05-19T08:52:31.045Z,35.70
2019-05-19T08:55:02.511Z,36.26
2019-05-19T08:57:33.617Z,36.27
2019-05-19T09:00:06.595Z,36.46
2019-05-19T09:02:38.857Z,36.77
2019-05-19T09:05:10.401Z,36.63
2019-05-19T09:07:41.624Z,35.45
2019-05-19T09:10:14.364Z,35.58
2019-05-19T09:12:45.672Z,36.05
2019-05-19T09:15:17.015Z,36.16
2019-05-19T09:17:48.178Z,36.44
2019-05-19T09:20:19.558Z,36.25
2019-05-19T09:22:50.755Z,35.05
2019-05-19T09:25:22.090Z,35.38
2019-05-19T09:27:53.636Z,35.46
2019-05-19T09:30:24.900Z,35.39
2019-05-19T09:32:56.174Z,35.84
2019-05-19T09:35:27.392Z,35.95
2019-05-19T09:37:58.834Z,35.81
2019-05-19T09:40:30.091Z,35.79
2019-05-19T09:43:01.360Z,35.30
2019-05-19T09:45:32.787Z,35.56
2019-05-19T09:48:04.422Z,34.94
2019-05-19T09:50:35.604Z,34.68
2019-05-19T09:53:06.822Z,34.95
2019-05-19T09:55:38.007Z,35.11
2019-05-19T09:58:09.314Z,34.93
2019-05-19T10:00:40.529Z,34.49
2019-05-19T10:03:12.008Z,34.75
2019-05-19T10:05:43.367Z,34.24
2019-05-19T10:08:14.656Z,34.04
2019-05-19T10:11:05.513Z,33.81
2019-05-19T10:13:37.857Z,34.18
2019-05-19T10:16:09.416Z,34.19
2019-05-19T10:18:40.809Z,32.77
2019-05-19T10:21:12.101Z,32.95
2019-05-19T10:23:43.403Z,33.82
2019-05-19T10:26:14.706Z,33.39
2019-05-19T10:28:45.821Z,33.38
2019-05-19T10:31:17.043Z,33.20
2019-05-19T10:33:48.259Z,33.49
2019-05-19T10:36:19.628Z,33.10
2019-05-19T10:38:50.919Z,33.27
2019-05-19T10:41:22.109Z,33.04
2019-05-19T10:44:00.917Z,33.41
2019-05-19T10:46:32.312Z,33.50
2019-05-19T10:49:03.524Z,33.49
2019-05-19T10:51:34.920Z,32.60
2019-05-19T10:54:06.223Z,32.06
2019-05-19T10:56:37.579Z,32.54
2019-05-19T10:59:08.835Z,32.46
2019-05-19T11:01:40.059Z,32.64
2019-05-19T11:04:11.426Z,32.69
2019-05-19T11:06:42.782Z,31.73
2019-05-19T11:09:14.334Z,32.33
2019-05-19T11:11:45.521Z,32.99
2019-05-19T11:14:16.740Z,31.71
2019-05-19T11:16:47.978Z,31.64
2019-05-19T11:19:19.364Z,32.17
2019-05-19T11:21:50.796Z,31.54
2019-05-19T11:24:22.340Z,31.52
2019-05-19T11:26:53.580Z,31.87
2019-05-19T11:29:24.782Z,32.04
2019-05-19T11:31:56.091Z,31.88
2019-05-19T11:34:27.431Z,31.13
2019-05-19T11:36:58.867Z,30.61
2019-05-19T11:39:30.061Z,28.92
2019-05-19T11:42:02.243Z,30.65
2019-05-19T11:44:33.629Z,30.69
2019-05-19T11:47:04.984Z,31.69
2019-05-19T11:49:36.216Z,32.44
2019-05-19T11:52:07.390Z,30.49
2019-05-19T11:54:38.646Z,31.20
2019-05-19T11:57:09.923Z,31.67
2019-05-19T11:59:41.199Z,30.95
2019-05-19T12:02:12.468Z,28.10
2019-05-19T12:04:43.621Z,28.85
2019-05-19T12:07:15.053Z,29.04
2019-05-19T12:09:46.195Z,30.09
2019-05-19T12:12:17.526Z,31.31
2019-05-19T12:14:48.677Z,31.09
2019-05-19T12:17:19.897Z,30.73
2019-05-19T12:19:51.145Z,29.68
2019-05-19T12:22:22.317Z,30.49
2019-05-19T12:24:53.780Z,30.07
2019-05-19T12:27:25.166Z,30.64
2019-05-19T12:29:56.460Z,31.53
2019-05-19T12:32:27.669Z,31.51
2019-05-19T12:34:58.905Z,31.17
2019-05-19T12:37:30.845Z,29.47
2019-05-19T12:40:02.466Z,29.89
2019-05-19T12:42:35.688Z,29.61
2019-05-19T12:45:09.002Z,28.71
2019-05-19T12:47:40.407Z,28.31
2019-05-19T12:50:11.741Z,28.97
2019-05-19T12:52:43.025Z,28.98
2019-05-19T12:55:15.813Z,29.13
2019-05-19T12:57:47.207Z,29.94
2019-05-19T13:00:18.535Z,29.68
2019-05-19T13:02:50.029Z,30.02
2019-05-19T13:05:21.314Z,30.26
2019-05-19T13:07:52.529Z,31.12
2019-05-19T13:10:24.071Z,32.14
2019-05-19T13:12:55.438Z,32.38
2019-05-19T13:15:30.493Z,32.58
2019-05-19T13:18:02.301Z,30.94
2019-05-19T13:20:33.518Z,29.99
2019-05-19T13:23:04.718Z,30.50
2019-05-19T13:25:36.007Z,31.39
2019-05-19T13:28:07.425Z,31.47
2019-05-19T13:30:38.613Z,31.29
2019-05-19T13:33:09.876Z,31.63
2019-05-19T13:35:41.074Z,31.02
2019-05-19T13:38:12.399Z,30.73
2019-05-19T13:40:43.496Z,31.29
2019-05-19T13:43:14.755Z,31.17
2019-05-19T13:45:46.951Z,31.47
2019-05-19T13:48:18.251Z,31.99
2019-05-19T13:50:49.420Z,31.39
2019-05-19T13:53:20.767Z,31.67
2019-05-19T13:55:52.247Z,31.90
2019-05-19T13:58:23.540Z,31.72
2019-05-19T14:00:54.781Z,30.62
2019-05-19T14:03:26.150Z,30.86
2019-05-19T14:05:57.212Z,30.67
2019-05-19T14:08:28.553Z,31.48
2019-05-19T14:11:01.472Z,31.24
2019-05-19T14:13:32.760Z,31.31
2019-05-19T14:16:04.080Z,30.45
2019-05-19T14:18:35.307Z,30.37
2019-05-19T14:21:06.682Z,30.79
2019-05-19T14:23:41.005Z,30.52
2019-05-19T14:26:12.366Z,30.97
2019-05-19T14:28:43.653Z,30.87
2019-05-19T14:31:14.792Z,31.18
2019-05-19T14:33:47.723Z,31.46
2019-05-19T14:36:20.096Z,31.47
2019-05-19T14:39:05.021Z,31.72
2019-05-19T14:41:35.496Z,31.44
2019-05-19T14:44:07.816Z,31.43
2019-05-19T14:46:39.313Z,31.01
2019-05-19T14:49:11.361Z,31.28
2019-05-19T14:51:42.639Z,31.39
2019-05-19T14:54:14.102Z,31.25
2019-05-19T14:56:45.346Z,30.86
2019-05-19T14:59:16.588Z,31.37
2019-05-19T15:01:47.747Z,31.55
2019-05-19T15:04:19.090Z,31.91
2019-05-19T15:06:50.435Z,31.47
2019-05-19T15:09:21.713Z,31.74
2019-05-19T15:11:53.401Z,32.08
2019-05-19T15:14:24.783Z,31.76
2019-05-19T15:16:56.061Z,32.06
2019-05-19T15:19:28.338Z,32.07
2019-05-19T15:21:59.734Z,32.43
2019-05-19T15:24:30.968Z,32.81
2019-05-19T15:27:02.312Z,32.54
2019-05-19T15:29:33.590Z,32.46
2019-05-19T15:32:04.928Z,32.39
2019-05-19T15:34:36.330Z,32.49
2019-05-19T15:37:07.718Z,32.80
2019-05-19T15:39:38.986Z,32.86
2019-05-19T15:42:14.266Z,33.09
2019-05-19T15:44:45.529Z,33.32
2019-05-19T15:47:16.809Z,33.46
2019-05-19T15:49:48.086Z,33.54
2019-05-19T15:52:19.639Z,33.58
2019-05-19T15:54:51.135Z,33.73
2019-05-19T15:57:22.534Z,33.80
2019-05-19T15:59:54.165Z,33.84
2019-05-19T16:02:25.512Z,33.47
2019-05-19T16:04:56.712Z,33.27
2019-05-19T16:07:27.995Z,32.85
2019-05-19T16:09:59.383Z,32.87
2019-05-19T16:12:30.689Z,33.07
2019-05-19T16:15:01.948Z,33.04
2019-05-19T16:17:33.314Z,33.20
2019-05-19T16:20:06.718Z,33.38
2019-05-19T16:22:38.174Z,33.45
2019-05-19T16:25:10.947Z,33.44
2019-05-19T16:27:42.464Z,33.55
2019-05-19T16:30:14.325Z,33.27
2019-05-19T16:32:45.593Z,33.60
2019-05-19T16:35:16.803Z,33.29
2019-05-19T16:37:48.202Z,33.64
2019-05-19T16:40:19.762Z,33.72
2019-05-19T16:42:51.104Z,33.58
2019-05-19T16:45:22.559Z,33.60
2019-05-19T16:47:54.119Z,33.79
2019-05-19T16:50:25.577Z,34.18
2019-05-19T16:52:57.292Z,34.17
2019-05-19T16:55:30.818Z,34.37
2019-05-19T16:58:02.268Z,34.58
2019-05-19T17:00:33.876Z,34.86
2019-05-19T17:03:05.684Z,34.53
2019-05-19T17:05:37.120Z,34.92
2019-05-19T17:08:08.449Z,35.24
2019-05-19T17:10:39.945Z,35.43
2019-05-19T17:13:11.120Z,35.68
2019-05-19T17:15:42.319Z,35.96
2019-05-19T17:18:13.755Z,36.07
2019-05-19T17:20:45.418Z,36.41
2019-05-19T17:23:17.353Z,36.54
2019-05-19T17:25:49.555Z,36.82
2019-05-19T17:28:21.227Z,37.13
2019-05-19T17:30:52.798Z,37.41
2019-05-19T17:33:24.478Z,37.39
2019-05-19T17:36:02.835Z,37.65
2019-05-19T17:38:34.328Z,37.79
2019-05-19T17:41:05.871Z,38.17
2019-05-19T17:43:37.296Z,38.16
2019-05-19T17:46:08.902Z,38.14
2019-05-19T17:48:40.647Z,38.16
2019-05-19T17:51:12.356Z,38.20
2019-05-19T17:53:43.844Z,38.25
2019-05-19T17:56:16.800Z,38.54
2019-05-19T17:58:48.724Z,38.52
2019-05-19T18:01:19.932Z,38.61
2019-05-19T18:03:51.829Z,38.74
2019-05-19T18:06:23.356Z,38.80
2019-05-19T18:08:55.091Z,38.72
2019-05-19T18:11:28.331Z,38.64
2019-05-19T18:14:01.084Z,38.76
2019-05-19T18:16:32.708Z,38.79
2019-05-19T18:19:04.312Z,38.58
2019-05-19T18:21:35.760Z,38.57
2019-05-19T18:24:07.848Z,38.66
2019-05-19T18:26:39.328Z,39.08
2019-05-19T18:29:10.984Z,39.13
2019-05-19T18:31:42.582Z,39.10
2019-05-19T18:34:13.734Z,39.21
2019-05-19T18:36:46.391Z,39.41
2019-05-19T18:39:17.769Z,39.29
2019-05-19T18:41:48.960Z,39.54
2019-05-19T18:44:20.417Z,39.96
2019-05-19T18:46:51.788Z,41.48
2019-05-19T18:49:23.131Z,43.41
2019-05-19T18:51:58.454Z,43.44
2019-05-19T18:54:57.015Z,43.72
2019-05-19T18:57:28.612Z,43.70
2019-05-19T19:00:00.186Z,44.35
2019-05-19T19:02:32.111Z,45.28
2019-05-19T19:05:04.325Z,45.82
2019-05-19T19:07:52.495Z,46.21
2019-05-19T19:10:23.953Z,47.04
2019-05-19T19:12:55.460Z,47.44
2019-05-19T19:15:26.772Z,47.42
2019-05-19T19:17:58.053Z,47.83
2019-05-19T19:20:29.422Z,47.92
2019-05-19T19:23:01.459Z,47.97
2019-05-19T19:25:33.061Z,48.09
2019-05-19T19:28:04.443Z,48.43
2019-05-19T19:30:35.897Z,48.36
2019-05-19T19:33:07.346Z,48.02
2019-05-19T19:35:39.788Z,48.12
2019-05-19T19:38:11.317Z,47.73
2019-05-19T19:40:42.882Z,48.08
2019-05-19T19:43:14.382Z,48.29
2019-05-19T19:45:45.753Z,48.51
2019-05-19T19:48:17.286Z,48.95
2019-05-19T19:50:48.610Z,49.17
2019-05-19T19:53:20.011Z,48.40
2019-05-19T19:55:51.473Z,48.71
2019-05-19T19:58:22.911Z,48.74
2019-05-19T20:00:55.006Z,48.65
2019-05-19T20:03:26.423Z,49.16
2019-05-19T20:05:57.910Z,48.72
2019-05-19T20:08:29.410Z,48.98
2019-05-19T20:11:00.961Z,48.63
2019-05-19T20:13:32.627Z,48.84
2019-05-19T20:16:04.117Z,48.95
2019-05-19T20:18:35.710Z,48.71
2019-05-19T20:21:07.194Z,48.89
2019-05-19T20:23:38.648Z,48.67
2019-05-19T20:26:10.247Z,48.56
2019-05-19T20:28:41.617Z,47.66
2019-05-19T20:31:13.292Z,48.26
2019-05-19T20:33:44.762Z,48.22
2019-05-19T20:36:16.106Z,48.35
2019-05-19T20:38:47.521Z,48.31
2019-05-19T20:41:18.987Z,48.79
2019-05-19T20:43:50.377Z,48.65
2019-05-19T20:46:21.725Z,48.95
2019-05-19T20:48:53.078Z,49.26
2019-05-19T20:51:24.633Z,48.99
2019-05-19T20:53:56.106Z,48.91
2019-05-19T20:56:27.592Z,49.56
2019-05-19T20:58:58.936Z,49.40
2019-05-19T21:01:30.387Z,49.56
2019-05-19T21:04:01.689Z,49.31
2019-05-19T21:06:33.090Z,49.49
2019-05-19T21:09:05.897Z,50.09
2019-05-19T21:11:37.321Z,50.20
2019-05-19T21:14:09.865Z,50.14
2019-05-19T21:16:41.195Z,50.15
2019-05-19T21:19:14.032Z,50.12
2019-05-19T21:21:45.268Z,49.60
2019-05-19T21:24:16.545Z,50.24
2019-05-19T21:26:47.923Z,49.87
2019-05-19T21:29:19.530Z,49.57
2019-05-19T21:31:50.823Z,49.48
2019-05-19T21:34:22.113Z,49.04
2019-05-19T21:36:53.617Z,49.09
2019-05-19T21:39:24.845Z,49.50
2019-05-19T21:41:56.216Z,49.43
2019-05-19T21:47:35.773Z,48.86
2019-05-19T21:50:08.409Z,49.77
2019-05-19T21:52:39.989Z,49.58
2019-05-19T21:55:11.432Z,49.68
2019-05-19T21:57:45.279Z,49.73
2019-05-19T22:00:19.007Z,49.74
2019-05-19T22:02:52.346Z,49.96
2019-05-19T22:05:24.230Z,49.90
2019-05-19T22:08:04.723Z,49.67
2019-05-19T22:10:36.585Z,49.59
2019-05-19T22:13:09.454Z,49.29
2019-05-19T22:15:41.494Z,49.62
2019-05-19T22:18:13.762Z,49.40
2019-05-19T22:20:45.806Z,49.28
2019-05-19T22:23:17.612Z,49.33
2019-05-19T22:25:49.523Z,49.40
2019-05-19T22:28:21.852Z,48.93
2019-05-19T22:30:53.314Z,49.16
2019-05-19T22:33:24.971Z,49.33
2019-05-19T22:35:57.247Z,49.20
2019-05-19T22:38:29.302Z,49.32
2019-05-19T22:41:00.637Z,49.53
2019-05-19T22:43:32.035Z,49.69
2019-05-19T22:46:03.851Z,49.74
2019-05-19T22:48:35.102Z,49.90
2019-05-19T22:51:07.346Z,50.25
2019-05-19T22:53:40.152Z,50.44
2019-05-19T22:56:12.549Z,50.40
2019-05-19T22:58:44.479Z,50.68
2019-05-19T23:01:16.452Z,50.88
2019-05-19T23:03:48.851Z,51.29
2019-05-19T23:06:20.724Z,51.32
2019-05-19T23:09:18.151Z,51.72
2019-05-19T23:11:50.264Z,51.49
2019-05-19T23:14:21.501Z,51.63
2019-05-19T23:16:52.841Z,51.62
2019-05-19T23:19:24.632Z,51.83
2019-05-19T23:21:55.927Z,51.73
2019-05-19T23:24:27.087Z,51.81
2019-05-19T23:26:58.769Z,51.59
2019-05-19T23:29:30.654Z,52.04
2019-05-19T23:32:07.122Z,52.56
2019-05-19T23:34:34.792Z,53.01
2019-05-19T23:37:06.077Z,52.32
2019-05-19T23:39:37.295Z,52.59
2019-05-19T23:42:08.596Z,52.53
2019-05-19T23:44:40.093Z,52.56
2019-05-19T23:47:11.376Z,52.42
2019-05-19T23:49:42.941Z,51.74
2019-05-19T23:52:14.875Z,52.25
2019-05-19T23:54:46.654Z,52.23
2019-05-19T23:57:19.980Z,52.34
